createdAt,value
2017-11-04T00:00:46.946Z,89.32
2017-11-04T00:01:48.826Z,89.42
2017-11-04T00:02:50.712Z,89.42
2017-11-04T00:03:52.591Z,89.32
2017-11-04T00:04:54.406Z,89.56
2017-11-04T00:05:56.221Z,89.61
2017-11-04T00:06:58.099Z,88.80
2017-11-04T00:07:59.977Z,88.85
2017-11-04T00:09:01.858Z,88.85
2017-11-04T00:10:16.008Z,89.04
2017-11-04T00:11:17.889Z,89.66
2017-11-04T00:12:19.771Z,89.80
2017-11-04T00:13:21.652Z,89.56
2017-11-04T00:14:23.492Z,89.47
2017-11-04T00:15:25.296Z,89.09
2017-11-04T00:16:27.183Z,89.42
2017-11-04T00:17:29.064Z,89.66
2017-11-04T00:18:30.957Z,89.37
2017-11-04T00:19:45.107Z,89.28
2017-11-04T00:20:47.000Z,89.09
2017-11-04T00:21:48.879Z,89.09
2017-11-04T00:22:50.761Z,89.47
2017-11-04T00:23:52.577Z,89.28
2017-11-04T00:24:54.409Z,89.09
2017-11-04T00:25:56.269Z,89.00
2017-11-04T00:26:58.157Z,88.80
2017-11-04T00:28:00.027Z,88.80
2017-11-04T00:29:14.179Z,88.90
2017-11-04T00:30:16.054Z,89.18
2017-11-04T00:31:17.936Z,89.37
2017-11-04T00:32:19.816Z,89.28
2017-11-04T00:33:21.636Z,89.37
2017-11-04T00:34:23.449Z,89.56
2017-11-04T00:35:25.346Z,89.47
2017-11-04T00:36:27.208Z,89.47
2017-11-04T00:37:29.088Z,89.37
2017-11-04T00:38:43.240Z,88.80
2017-11-04T00:39:45.121Z,88.90
2017-11-04T00:40:47.002Z,89.00
2017-11-04T00:41:48.884Z,89.47
2017-11-04T00:42:50.704Z,89.28
2017-11-04T00:43:52.517Z,89.09
2017-11-04T00:44:54.393Z,89.09
2017-11-04T00:45:56.272Z,88.90
2017-11-04T00:46:58.164Z,89.09
2017-11-04T00:48:12.314Z,89.00
2017-11-04T00:49:14.197Z,89.28
2017-11-04T00:50:16.079Z,89.18
2017-11-04T00:51:17.960Z,89.00
2017-11-04T00:52:19.773Z,89.09
2017-11-04T00:53:21.601Z,89.09
2017-11-04T00:54:23.475Z,89.18
2017-11-04T00:55:25.356Z,89.00
2017-11-04T00:56:27.236Z,88.61
2017-11-04T00:57:41.388Z,88.52
2017-11-04T00:58:43.268Z,88.80
2017-11-04T00:59:45.152Z,88.71
2017-11-04T01:00:47.032Z,88.90
2017-11-04T01:01:48.848Z,88.80
2017-11-04T01:02:50.661Z,89.18
2017-11-04T01:03:52.551Z,88.80
2017-11-04T01:04:54.429Z,88.61
2017-11-04T01:05:56.311Z,89.18
2017-11-04T01:07:10.460Z,89.00
2017-11-04T01:08:12.340Z,88.52
2017-11-04T01:09:14.222Z,88.71
2017-11-04T01:10:16.102Z,88.71
2017-11-04T01:11:17.942Z,88.71
2017-11-04T01:12:19.742Z,88.71
2017-11-04T01:13:21.622Z,88.71
2017-11-04T01:14:23.500Z,88.90
2017-11-04T01:15:25.382Z,88.80
2017-11-04T01:16:39.534Z,88.90
2017-11-04T01:17:41.416Z,89.00
2017-11-04T01:18:43.297Z,89.09
2017-11-04T01:19:45.178Z,89.75
2017-11-04T01:20:46.992Z,89.56
2017-11-04T01:21:48.818Z,88.80
2017-11-04T01:22:50.700Z,88.71
2017-11-04T01:23:52.579Z,89.09
2017-11-04T01:24:54.456Z,88.90
2017-11-04T01:26:08.606Z,89.37
2017-11-04T01:27:10.486Z,89.28
2017-11-04T01:28:12.367Z,89.47
2017-11-04T01:29:14.248Z,89.56
2017-11-04T01:30:16.064Z,89.47
2017-11-04T01:31:17.878Z,89.47
2017-11-04T01:32:19.773Z,89.56
2017-11-04T01:33:21.649Z,89.56
2017-11-04T01:34:23.527Z,89.37
2017-11-04T01:35:37.729Z,89.18
2017-11-04T01:36:39.612Z,89.18
2017-11-04T01:37:41.492Z,89.37
2017-11-04T01:38:43.372Z,89.00
2017-11-04T01:39:45.187Z,89.47
2017-11-04T01:40:46.999Z,89.18
2017-11-04T01:41:48.888Z,89.18
2017-11-04T01:42:50.770Z,89.37
2017-11-04T01:43:52.651Z,89.37
2017-11-04T01:45:06.806Z,89.28
2017-11-04T01:46:08.681Z,89.66
2017-11-04T01:47:10.562Z,89.66
2017-11-04T01:48:12.444Z,89.66
2017-11-04T01:49:14.260Z,89.37
2017-11-04T01:50:16.076Z,89.18
2017-11-04T01:51:17.954Z,89.37
2017-11-04T01:52:19.847Z,89.37
2017-11-04T01:53:21.724Z,89.66
2017-11-04T01:54:35.926Z,89.66
2017-11-04T01:55:37.809Z,89.66
2017-11-04T01:56:39.695Z,89.37
2017-11-04T01:57:41.581Z,89.18
2017-11-04T01:58:43.396Z,89.28
2017-11-04T01:59:45.211Z,89.18
2017-11-04T02:00:47.090Z,89.37
2017-11-04T02:01:48.971Z,89.47
2017-11-04T02:02:50.849Z,89.56
2017-11-04T02:04:04.998Z,89.66
2017-11-04T02:05:06.878Z,89.28
2017-11-04T02:06:08.763Z,89.47
2017-11-04T02:07:10.644Z,89.28
2017-11-04T02:08:12.460Z,89.47
2017-11-04T02:09:14.274Z,89.28
2017-11-04T02:10:16.158Z,89.37
2017-11-04T02:11:18.037Z,89.37
2017-11-04T02:12:19.927Z,89.75
2017-11-04T02:13:34.068Z,89.47
2017-11-04T02:14:35.950Z,89.47
2017-11-04T02:15:37.831Z,89.47
2017-11-04T02:16:39.729Z,89.66
2017-11-04T02:17:41.531Z,89.66
2017-11-04T02:18:43.346Z,89.28
2017-11-04T02:19:45.236Z,89.47
2017-11-04T02:20:47.115Z,89.56
2017-11-04T02:21:48.994Z,88.80
2017-11-04T02:23:03.143Z,88.90
2017-11-04T02:24:05.027Z,89.85
2017-11-04T02:25:06.903Z,89.37
2017-11-04T02:26:08.785Z,89.28
2017-11-04T02:27:10.602Z,89.09
2017-11-04T02:28:12.415Z,88.90
2017-11-04T02:29:14.298Z,89.09
2017-11-04T02:30:16.174Z,88.90
2017-11-04T02:31:18.066Z,88.61
2017-11-04T02:32:32.219Z,88.90
2017-11-04T02:33:34.097Z,88.80
2017-11-04T02:34:35.979Z,88.33
2017-11-04T02:35:37.860Z,88.42
2017-11-04T02:36:39.677Z,88.42
2017-11-04T02:37:41.491Z,88.71
2017-11-04T02:38:43.374Z,88.23
2017-11-04T02:39:45.251Z,88.94
2017-11-04T02:40:47.134Z,88.23
2017-11-04T02:42:01.290Z,88.04
2017-11-04T02:43:03.167Z,88.42
2017-11-04T02:44:05.047Z,88.42
2017-11-04T02:45:06.924Z,88.13
2017-11-04T02:46:08.736Z,88.33
2017-11-04T02:47:10.547Z,88.23
2017-11-04T02:48:12.425Z,88.33
2017-11-04T02:49:14.308Z,88.61
2017-11-04T02:50:16.182Z,88.61
2017-11-04T02:51:30.329Z,89.00
2017-11-04T02:52:32.205Z,88.52
2017-11-04T02:53:34.079Z,88.42
2017-11-04T02:54:35.955Z,88.71
2017-11-04T02:55:37.769Z,88.33
2017-11-04T02:56:39.583Z,88.23
2017-11-04T02:57:41.461Z,88.33
2017-11-04T02:58:43.340Z,88.90
2017-11-04T02:59:45.217Z,88.61
2017-11-04T03:00:59.366Z,88.71
2017-11-04T03:02:01.240Z,88.80
2017-11-04T03:03:03.124Z,88.80
2017-11-04T03:04:04.993Z,88.61
2017-11-04T03:05:06.809Z,88.61
2017-11-04T03:06:08.621Z,88.80
2017-11-04T03:07:10.498Z,88.42
2017-11-04T03:08:12.387Z,88.52
2017-11-04T03:09:14.261Z,89.00
2017-11-04T03:10:28.410Z,88.61
2017-11-04T03:11:30.286Z,88.80
2017-11-04T03:12:32.162Z,88.52
2017-11-04T03:13:34.039Z,89.00
2017-11-04T03:14:35.851Z,89.37
2017-11-04T03:15:37.662Z,88.90
2017-11-04T03:16:39.540Z,88.80
2017-11-04T03:17:41.416Z,89.18
2017-11-04T03:18:43.303Z,88.90
2017-11-04T03:19:57.463Z,89.47
2017-11-04T03:20:59.340Z,89.18
2017-11-04T03:22:01.217Z,89.42
2017-11-04T03:23:03.092Z,89.37
2017-11-04T03:24:04.908Z,89.37
2017-11-04T03:25:06.721Z,89.28
2017-11-04T03:26:08.598Z,89.56
2017-11-04T03:27:10.487Z,89.37
2017-11-04T03:28:12.366Z,89.66
2017-11-04T03:29:26.526Z,89.00
2017-11-04T03:30:28.401Z,89.00
2017-11-04T03:31:30.278Z,88.71
2017-11-04T03:32:32.166Z,88.80
2017-11-04T03:33:33.981Z,89.47
2017-11-04T03:34:35.793Z,89.37
2017-11-04T03:35:37.672Z,88.71
2017-11-04T03:36:39.552Z,89.09
2017-11-04T03:37:41.428Z,89.09
2017-11-04T03:38:55.576Z,89.18
2017-11-04T03:39:57.460Z,89.00
2017-11-04T03:40:59.343Z,88.80
2017-11-04T03:42:01.218Z,88.52
2017-11-04T03:43:03.027Z,88.90
2017-11-04T03:44:04.839Z,88.90
2017-11-04T03:45:06.718Z,88.71
2017-11-04T03:46:08.594Z,88.80
2017-11-04T03:47:10.481Z,88.90
2017-11-04T03:48:24.639Z,88.52
2017-11-04T03:49:26.525Z,88.42
2017-11-04T03:50:28.401Z,88.61
2017-11-04T03:51:30.287Z,88.23
2017-11-04T03:52:32.101Z,88.33
2017-11-04T03:53:33.913Z,88.71
2017-11-04T03:54:35.793Z,88.42
2017-11-04T03:55:37.669Z,88.71
2017-11-04T03:56:39.544Z,88.23
2017-11-04T03:57:53.692Z,87.95
2017-11-04T03:58:55.566Z,88.42
2017-11-04T03:59:57.443Z,88.04
2017-11-04T04:00:59.319Z,88.90
2017-11-04T04:02:01.136Z,88.47
2017-11-04T04:03:03.923Z,88.47
2017-11-04T04:04:06.014Z,88.47
2017-11-04T04:05:07.890Z,89.14
2017-11-04T04:06:09.765Z,89.14
2017-11-04T04:07:23.913Z,88.95
2017-11-04T04:08:25.799Z,89.04
2017-11-04T04:09:27.678Z,89.04
2017-11-04T04:10:29.553Z,89.04
2017-11-04T04:11:31.368Z,88.95
2017-11-04T04:12:33.184Z,88.95
2017-11-04T04:13:35.057Z,89.00
2017-11-04T04:14:36.943Z,89.09
2017-11-04T04:15:38.818Z,89.00
2017-11-04T04:16:52.976Z,88.52
2017-11-04T04:17:54.861Z,89.04
2017-11-04T04:18:56.747Z,88.85
2017-11-04T04:19:58.620Z,88.76
2017-11-04T04:21:00.444Z,88.67
2017-11-04T04:22:02.256Z,88.57
2017-11-04T04:23:04.138Z,89.00
2017-11-04T04:24:06.014Z,88.47
2017-11-04T04:25:07.892Z,88.42
2017-11-04T04:26:22.041Z,88.80
2017-11-04T04:27:23.920Z,88.80
2017-11-04T04:28:25.795Z,88.76
2017-11-04T04:29:27.669Z,88.85
2017-11-04T04:30:29.485Z,88.42
2017-11-04T04:31:31.296Z,88.76
2017-11-04T04:32:33.171Z,88.80
2017-11-04T04:33:35.059Z,88.23
2017-11-04T04:34:36.934Z,88.33
2017-11-04T04:35:51.087Z,88.23
2017-11-04T04:36:52.963Z,88.23
2017-11-04T04:37:55.825Z,88.28
2017-11-04T04:38:58.305Z,88.85
2017-11-04T04:40:00.119Z,88.85
2017-11-04T04:41:01.931Z,88.47
2017-11-04T04:42:03.809Z,88.38
2017-11-04T04:43:05.686Z,88.38
2017-11-04T04:44:07.561Z,88.57
2017-11-04T04:45:21.757Z,88.38
2017-11-04T04:46:23.633Z,88.76
2017-11-04T04:47:25.519Z,88.47
2017-11-04T04:48:27.393Z,89.04
2017-11-04T04:49:29.213Z,88.76
2017-11-04T04:50:31.024Z,88.95
2017-11-04T04:51:32.905Z,89.23
2017-11-04T04:52:34.780Z,89.33
2017-11-04T04:53:36.660Z,89.04
2017-11-04T04:54:50.800Z,89.04
2017-11-04T04:55:52.687Z,88.95
2017-11-04T04:56:54.568Z,88.85
2017-11-04T04:57:56.438Z,89.04
2017-11-04T04:58:58.254Z,88.67
2017-11-04T05:00:00.077Z,88.85
2017-11-04T05:01:01.957Z,88.57
2017-11-04T05:02:03.833Z,88.76
2017-11-04T05:03:05.708Z,89.04
2017-11-04T05:04:19.856Z,88.95
2017-11-04T05:05:21.741Z,88.95
2017-11-04T05:06:23.617Z,89.23
2017-11-04T05:07:25.491Z,89.14
2017-11-04T05:08:27.307Z,89.04
2017-11-04T05:09:29.116Z,88.95
2017-11-04T05:10:30.993Z,89.04
2017-11-04T05:11:32.880Z,89.80
2017-11-04T05:12:34.754Z,89.76
2017-11-04T05:13:48.914Z,89.61
2017-11-04T05:14:50.790Z,89.61
2017-11-04T05:15:52.662Z,89.71
2017-11-04T05:16:54.536Z,88.95
2017-11-04T05:17:56.352Z,88.76
2017-11-04T05:18:58.162Z,89.71
2017-11-04T05:20:00.052Z,89.90
2017-11-04T05:21:01.928Z,90.00
2017-11-04T05:22:03.804Z,90.00
2017-11-04T05:23:18.002Z,90.19
2017-11-04T05:24:19.877Z,90.09
2017-11-04T05:25:21.752Z,90.00
2017-11-04T05:26:23.627Z,89.42
2017-11-04T05:27:25.440Z,89.23
2017-11-04T05:28:27.250Z,89.33
2017-11-04T05:29:29.139Z,89.52
2017-11-04T05:30:31.018Z,89.42
2017-11-04T05:31:32.897Z,89.52
2017-11-04T05:32:47.092Z,89.71
2017-11-04T05:33:48.964Z,88.76
2017-11-04T05:34:50.859Z,89.23
2017-11-04T05:35:52.735Z,89.04
2017-11-04T05:36:54.587Z,88.95
2017-11-04T05:37:56.377Z,88.95
2017-11-04T05:38:58.255Z,88.95
2017-11-04T05:40:00.134Z,88.47
2017-11-04T05:41:02.017Z,88.67
2017-11-04T05:42:16.157Z,88.76
2017-11-04T05:43:18.043Z,88.47
2017-11-04T05:44:19.919Z,88.95
2017-11-04T05:45:21.797Z,88.85
2017-11-04T05:46:23.611Z,88.95
2017-11-04T05:47:25.430Z,88.76
2017-11-04T05:48:27.307Z,88.95
2017-11-04T05:49:29.184Z,89.04
2017-11-04T05:50:31.074Z,89.04
2017-11-04T05:51:45.223Z,88.57
2017-11-04T05:52:47.113Z,88.57
2017-11-04T05:53:48.990Z,88.85
2017-11-04T05:54:50.866Z,89.04
2017-11-04T05:55:52.684Z,88.57
2017-11-04T05:56:54.509Z,88.95
2017-11-04T05:57:56.401Z,88.47
2017-11-04T05:58:58.293Z,88.57
2017-11-04T06:00:00.174Z,88.67
2017-11-04T06:01:14.331Z,88.00
2017-11-04T06:02:16.201Z,88.19
2017-11-04T06:03:18.080Z,88.38
2017-11-04T06:04:19.958Z,88.28
2017-11-04T06:05:21.778Z,88.47
2017-11-04T06:06:23.590Z,88.19
2017-11-04T06:07:25.471Z,88.28
2017-11-04T06:08:27.363Z,88.00
2017-11-04T06:09:29.240Z,88.19
2017-11-04T06:10:43.392Z,88.19
2017-11-04T06:11:45.268Z,88.19
2017-11-04T06:12:47.157Z,88.19
2017-11-04T06:13:49.033Z,88.57
2017-11-04T06:14:50.860Z,88.57
2017-11-04T06:15:52.674Z,88.85
2017-11-04T06:16:54.564Z,88.57
2017-11-04T06:17:56.453Z,88.47
2017-11-04T06:18:58.336Z,88.47
2017-11-04T06:20:12.488Z,88.38
2017-11-04T06:21:14.367Z,88.57
2017-11-04T06:22:16.247Z,88.28
2017-11-04T06:23:18.128Z,88.19
2017-11-04T06:24:19.948Z,88.28
2017-11-04T06:25:21.765Z,88.00
2017-11-04T06:26:23.646Z,88.38
2017-11-04T06:27:25.528Z,87.62
2017-11-04T06:28:27.409Z,87.90
2017-11-04T06:29:41.608Z,87.81
2017-11-04T06:30:43.486Z,87.71
2017-11-04T06:31:45.378Z,87.62
2017-11-04T06:32:47.271Z,87.52
2017-11-04T06:33:49.089Z,87.62
2017-11-04T06:34:50.906Z,87.71
2017-11-04T06:35:52.786Z,87.52
2017-11-04T06:36:54.668Z,87.52
2017-11-04T06:37:56.551Z,87.71
2017-11-04T06:39:10.751Z,87.05
2017-11-04T06:40:12.630Z,87.14
2017-11-04T06:41:14.511Z,87.14
2017-11-04T06:42:16.394Z,87.43
2017-11-04T06:43:18.213Z,87.52
2017-11-04T06:44:20.028Z,87.43
2017-11-04T06:45:21.908Z,87.52
2017-11-04T06:46:23.791Z,87.62
2017-11-04T06:47:25.671Z,87.90
2017-11-04T06:48:39.825Z,87.81
2017-11-04T06:49:41.702Z,87.71
2017-11-04T06:50:43.587Z,87.81
2017-11-04T06:51:45.468Z,87.81
2017-11-04T06:52:47.288Z,87.62
2017-11-04T06:53:49.101Z,87.47
2017-11-04T06:54:50.984Z,87.24
2017-11-04T06:55:52.867Z,86.95
2017-11-04T06:56:54.748Z,86.99
2017-11-04T06:58:08.909Z,87.19
2017-11-04T06:59:10.783Z,86.80
2017-11-04T07:00:12.665Z,86.43
2017-11-04T07:01:14.545Z,86.43
2017-11-04T07:02:16.366Z,86.52
2017-11-04T07:03:18.182Z,86.52
2017-11-04T07:04:20.077Z,86.52
2017-11-04T07:05:21.961Z,86.43
2017-11-04T07:06:23.846Z,86.43
2017-11-04T07:07:38.043Z,86.24
2017-11-04T07:08:39.924Z,86.05
2017-11-04T07:09:41.806Z,86.33
2017-11-04T07:10:43.690Z,86.24
2017-11-04T07:11:45.521Z,86.33
2017-11-04T07:12:47.352Z,85.76
2017-11-04T07:13:49.235Z,85.28
2017-11-04T07:14:51.121Z,85.47
2017-11-04T07:15:52.999Z,85.86
2017-11-04T07:17:07.153Z,85.38
2017-11-04T07:18:09.035Z,85.38
2017-11-04T07:19:10.917Z,85.10
2017-11-04T07:20:12.799Z,84.66
2017-11-04T07:21:14.618Z,84.95
2017-11-04T07:22:16.435Z,84.47
2017-11-04T07:23:18.332Z,84.37
2017-11-04T07:24:20.212Z,84.37
2017-11-04T07:25:22.094Z,84.00
2017-11-04T07:26:36.247Z,83.71
2017-11-04T07:27:38.126Z,83.81
2017-11-04T07:28:40.019Z,84.00
2017-11-04T07:29:41.929Z,84.00
2017-11-04T07:30:43.729Z,83.90
2017-11-04T07:31:45.548Z,84.19
2017-11-04T07:32:47.431Z,83.62
2017-11-04T07:33:49.311Z,83.04
2017-11-04T07:34:51.208Z,83.42
2017-11-04T07:36:05.410Z,83.04
2017-11-04T07:37:07.289Z,83.14
2017-11-04T07:38:09.182Z,83.04
2017-11-04T07:39:11.534Z,82.90
2017-11-04T07:40:13.395Z,82.67
2017-11-04T07:41:15.214Z,82.42
2017-11-04T07:42:17.096Z,83.37
2017-11-04T07:43:19.021Z,83.37
2017-11-04T07:44:20.911Z,82.42
2017-11-04T07:45:35.077Z,82.90
2017-11-04T07:46:36.958Z,82.23
2017-11-04T07:47:38.842Z,82.04
2017-11-04T07:48:40.735Z,82.42
2017-11-04T07:49:42.547Z,82.23
2017-11-04T07:50:44.379Z,82.61
2017-11-04T07:51:46.265Z,82.04
2017-11-04T07:52:48.148Z,82.23
2017-11-04T07:53:50.031Z,82.23
2017-11-04T07:55:04.204Z,82.51
2017-11-04T07:56:06.079Z,82.42
2017-11-04T07:57:07.963Z,82.42
2017-11-04T07:58:09.847Z,82.32
2017-11-04T07:59:11.677Z,82.42
2017-11-04T08:00:13.495Z,82.14
2017-11-04T08:01:15.379Z,82.61
2017-11-04T08:02:17.261Z,82.04
2017-11-04T08:03:19.143Z,82.14
2017-11-04T08:04:33.306Z,81.56
2017-11-04T08:05:35.186Z,81.56
2017-11-04T08:06:37.071Z,81.66
2017-11-04T08:07:38.964Z,81.18
2017-11-04T08:08:40.796Z,81.47
2017-11-04T08:09:42.606Z,81.51
2017-11-04T08:10:44.489Z,81.03
2017-11-04T08:11:46.385Z,81.13
2017-11-04T08:12:48.270Z,80.75
2017-11-04T08:14:02.424Z,80.55
2017-11-04T08:15:04.308Z,80.36
2017-11-04T08:16:06.192Z,80.50
2017-11-04T08:17:08.075Z,80.46
2017-11-04T08:18:09.908Z,80.12
2017-11-04T08:19:11.729Z,79.17
2017-11-04T08:20:13.615Z,79.07
2017-11-04T08:21:15.509Z,79.64
2017-11-04T08:22:17.393Z,78.59
2017-11-04T08:23:31.531Z,78.78
2017-11-04T08:24:33.353Z,79.55
2017-11-04T08:25:35.268Z,78.69
2017-11-04T08:26:37.175Z,78.98
2017-11-04T08:27:39.057Z,79.07
2017-11-04T08:28:40.891Z,78.98
2017-11-04T08:29:42.696Z,78.88
2017-11-04T08:30:44.593Z,78.50
2017-11-04T08:31:46.480Z,78.44
2017-11-04T08:33:00.748Z,78.25
2017-11-04T08:34:02.631Z,77.69
2017-11-04T08:35:04.532Z,77.78
2017-11-04T08:36:06.415Z,78.16
2017-11-04T08:37:08.238Z,77.59
2017-11-04T08:38:10.059Z,77.78
2017-11-04T08:39:11.946Z,77.69
2017-11-04T08:40:13.832Z,77.59
2017-11-04T08:41:15.718Z,77.11
2017-11-04T08:42:29.925Z,77.20
2017-11-04T08:43:31.814Z,77.20
2017-11-04T08:44:33.704Z,77.87
2017-11-04T08:45:35.583Z,78.25
2017-11-04T08:46:37.406Z,77.87
2017-11-04T08:47:39.230Z,77.62
2017-11-04T08:48:42.470Z,77.62
2017-11-04T08:49:45.266Z,77.06
2017-11-04T08:50:47.972Z,76.29
2017-11-04T08:52:02.814Z,76.29
2017-11-04T08:53:05.555Z,76.39
2017-11-04T08:55:24.670Z,76.01
2017-11-04T08:56:26.529Z,77.82
2017-11-04T08:57:28.349Z,78.49
2017-11-04T08:58:30.199Z,77.91
2017-11-04T08:59:32.088Z,76.67
2017-11-04T09:00:33.971Z,76.29
2017-11-04T09:01:48.174Z,76.20
2017-11-04T09:02:50.060Z,76.01
2017-11-04T09:03:51.952Z,75.91
2017-11-04T09:04:53.843Z,75.91
2017-11-04T09:05:55.669Z,75.72
2017-11-04T09:06:57.502Z,75.62
2017-11-04T09:07:59.386Z,75.43
2017-11-04T09:09:01.279Z,75.91
2017-11-04T09:10:03.161Z,75.81
2017-11-04T09:11:17.298Z,75.43
2017-11-04T09:12:19.131Z,75.15
2017-11-04T09:13:20.966Z,75.34
2017-11-04T09:14:22.785Z,75.53
2017-11-04T09:15:24.639Z,75.34
2017-11-04T09:16:26.526Z,75.15
2017-11-04T09:17:28.415Z,75.81
2017-11-04T09:18:30.256Z,75.81
2017-11-04T09:19:32.078Z,75.62
2017-11-04T09:20:46.254Z,75.72
2017-11-04T09:21:48.133Z,75.24
2017-11-04T09:22:50.047Z,75.15
2017-11-04T09:23:51.916Z,75.05
2017-11-04T09:24:53.743Z,75.53
2017-11-04T09:25:55.573Z,75.24
2017-11-04T09:26:57.466Z,75.28
2017-11-04T09:27:59.359Z,75.62
2017-11-04T09:29:01.243Z,75.28
2017-11-04T09:30:15.397Z,74.80
2017-11-04T09:31:17.286Z,75.18
2017-11-04T09:32:19.178Z,74.99
2017-11-04T09:33:21.066Z,74.99
2017-11-04T09:34:22.902Z,75.28
2017-11-04T09:35:24.721Z,75.28
2017-11-04T09:36:26.615Z,74.90
2017-11-04T09:37:28.500Z,75.09
2017-11-04T09:38:30.391Z,74.71
2017-11-04T09:39:44.549Z,74.90
2017-11-04T09:40:46.440Z,74.71
2017-11-04T09:41:48.326Z,74.42
2017-11-04T09:42:50.216Z,74.37
2017-11-04T09:43:52.043Z,74.13
2017-11-04T09:44:53.865Z,74.23
2017-11-04T09:45:55.756Z,73.79
2017-11-04T09:46:57.654Z,73.85
2017-11-04T09:47:59.542Z,74.17
2017-11-04T09:49:13.748Z,74.13
2017-11-04T09:50:15.631Z,74.42
2017-11-04T09:51:17.517Z,74.32
2017-11-04T09:52:19.409Z,74.32
2017-11-04T09:53:21.235Z,74.61
2017-11-04T09:54:23.064Z,74.04
2017-11-04T09:55:24.950Z,74.23
2017-11-04T09:56:26.839Z,74.13
2017-11-04T09:57:28.723Z,74.13
2017-11-04T09:58:42.893Z,73.94
2017-11-04T09:59:44.767Z,74.23
2017-11-04T10:00:46.737Z,74.04
2017-11-04T10:01:48.664Z,74.13
2017-11-04T10:02:50.489Z,74.23
2017-11-04T10:03:52.315Z,74.13
2017-11-04T10:04:54.200Z,74.32
2017-11-04T10:05:56.097Z,74.04
2017-11-04T10:06:57.985Z,74.32
2017-11-04T10:08:12.143Z,74.23
2017-11-04T10:09:14.038Z,74.04
2017-11-04T10:10:15.926Z,74.13
2017-11-04T10:11:17.814Z,74.23
2017-11-04T10:12:19.637Z,74.04
2017-11-04T10:13:21.461Z,74.23
2017-11-04T10:14:23.349Z,74.42
2017-11-04T10:15:25.235Z,74.71
2017-11-04T10:16:27.504Z,74.13
2017-11-04T10:17:42.008Z,74.32
2017-11-04T10:18:44.196Z,74.42
2017-11-04T10:19:46.406Z,74.61
2017-11-04T10:20:48.287Z,74.13
2017-11-04T10:21:50.112Z,73.69
2017-11-04T10:22:51.964Z,73.98
2017-11-04T10:23:53.849Z,74.17
2017-11-04T10:24:55.743Z,73.60
2017-11-04T10:25:57.630Z,73.69
2017-11-04T10:27:11.843Z,73.41
2017-11-04T10:28:13.733Z,73.12
2017-11-04T10:29:15.622Z,72.93
2017-11-04T10:30:17.507Z,72.74
2017-11-04T10:31:19.334Z,73.22
2017-11-04T10:32:21.160Z,73.12
2017-11-04T10:33:23.051Z,73.41
2017-11-04T10:34:24.968Z,73.22
2017-11-04T10:35:26.856Z,73.22
2017-11-04T10:36:41.048Z,73.12
2017-11-04T10:37:42.937Z,72.93
2017-11-04T10:38:45.177Z,73.22
2017-11-04T10:39:47.040Z,73.03
2017-11-04T10:40:48.871Z,72.55
2017-11-04T10:41:50.692Z,72.45
2017-11-04T10:42:52.924Z,72.64
2017-11-04T10:43:54.844Z,73.03
2017-11-04T10:44:57.030Z,73.12
2017-11-04T10:46:11.155Z,72.74
2017-11-04T10:47:13.040Z,73.66
2017-11-04T10:48:14.924Z,73.50
2017-11-04T10:49:16.823Z,73.08
2017-11-04T10:50:18.999Z,73.56
2017-11-04T10:51:20.844Z,73.66
2017-11-04T10:52:22.669Z,74.23
2017-11-04T10:53:24.558Z,74.23
2017-11-04T10:54:26.444Z,74.04
2017-11-04T10:55:40.601Z,73.75
2017-11-04T10:56:42.488Z,74.13
2017-11-04T10:57:44.372Z,73.50
2017-11-04T10:58:46.266Z,73.69
2017-11-04T10:59:48.088Z,73.79
2017-11-04T11:00:49.914Z,73.22
2017-11-04T11:01:51.796Z,73.03
2017-11-04T11:02:53.685Z,73.60
2017-11-04T11:03:55.614Z,73.12
2017-11-04T11:05:09.745Z,73.32
2017-11-04T11:06:11.631Z,73.41
2017-11-04T11:07:13.518Z,73.41
2017-11-04T11:08:15.446Z,73.32
2017-11-04T11:09:17.272Z,72.83
2017-11-04T11:10:19.094Z,72.49
2017-11-04T11:11:20.980Z,72.39
2017-11-04T11:12:22.868Z,71.82
2017-11-04T11:13:24.754Z,71.72
2017-11-04T11:14:38.914Z,71.82
2017-11-04T11:15:40.800Z,71.76
2017-11-04T11:16:42.685Z,71.53
2017-11-04T11:17:44.574Z,71.76
2017-11-04T11:18:46.398Z,71.28
2017-11-04T11:19:48.226Z,70.81
2017-11-04T11:20:50.113Z,70.61
2017-11-04T11:21:51.999Z,70.81
2017-11-04T11:22:53.890Z,70.27
2017-11-04T11:24:08.045Z,69.89
2017-11-04T11:25:09.928Z,69.47
2017-11-04T11:26:11.823Z,69.50
2017-11-04T11:27:13.704Z,69.09
2017-11-04T11:28:15.530Z,69.27
2017-11-04T11:29:17.351Z,69.37
2017-11-04T11:30:19.238Z,69.89
2017-11-04T11:31:21.127Z,69.56
2017-11-04T11:32:23.013Z,69.37
2017-11-04T11:33:37.184Z,69.37
2017-11-04T11:34:39.071Z,69.76
2017-11-04T11:35:40.960Z,70.33
2017-11-04T11:36:42.848Z,70.33
2017-11-04T11:37:44.674Z,70.14
2017-11-04T11:38:46.500Z,70.14
2017-11-04T11:39:48.387Z,69.76
2017-11-04T11:40:50.269Z,70.04
2017-11-04T11:41:52.156Z,70.04
2017-11-04T11:43:06.376Z,69.27
2017-11-04T11:44:08.261Z,69.37
2017-11-04T11:45:10.162Z,69.66
2017-11-04T11:46:12.053Z,69.27
2017-11-04T11:47:13.876Z,69.37
2017-11-04T11:48:15.702Z,69.76
2017-11-04T11:49:17.596Z,69.66
2017-11-04T11:50:19.482Z,69.18
2017-11-04T11:51:21.369Z,69.37
2017-11-04T11:52:35.530Z,69.27
2017-11-04T11:53:37.435Z,69.27
2017-11-04T11:54:39.317Z,69.18
2017-11-04T11:55:41.209Z,69.41
2017-11-04T11:56:43.038Z,68.99
2017-11-04T11:57:44.855Z,69.47
2017-11-04T11:58:46.747Z,69.56
2017-11-04T11:59:48.635Z,69.56
2017-11-04T12:00:50.527Z,69.95
2017-11-04T12:02:04.679Z,69.47
2017-11-04T12:03:06.567Z,69.12
2017-11-04T12:04:08.453Z,69.18
2017-11-04T12:05:10.341Z,69.02
2017-11-04T12:06:12.166Z,69.18
2017-11-04T12:07:13.996Z,69.09
2017-11-04T12:08:15.876Z,69.37
2017-11-04T12:09:17.767Z,69.85
2017-11-04T12:10:20.010Z,69.95
2017-11-04T12:11:34.189Z,69.85
2017-11-04T12:12:36.421Z,69.85
2017-11-04T12:13:38.338Z,69.85
2017-11-04T12:14:40.222Z,69.56
2017-11-04T12:15:42.391Z,69.47
2017-11-04T12:16:44.236Z,69.89
2017-11-04T12:17:46.467Z,69.18
2017-11-04T12:18:48.702Z,68.99
2017-11-04T12:19:50.610Z,69.66
2017-11-04T12:21:04.781Z,69.76
2017-11-04T12:22:06.665Z,69.66
2017-11-04T12:23:08.563Z,69.56
2017-11-04T12:24:10.451Z,69.66
2017-11-04T12:25:12.287Z,69.27
2017-11-04T12:26:14.451Z,69.02
2017-11-04T12:27:16.690Z,68.93
2017-11-04T12:28:18.583Z,69.02
2017-11-04T12:29:20.469Z,69.02
2017-11-04T12:30:34.643Z,68.64
2017-11-04T12:31:36.535Z,68.55
2017-11-04T12:32:38.420Z,68.84
2017-11-04T12:33:40.310Z,68.93
2017-11-04T12:34:42.136Z,69.18
2017-11-04T12:35:43.961Z,69.09
2017-11-04T12:36:45.851Z,69.85
2017-11-04T12:37:47.740Z,69.47
2017-11-04T12:38:49.626Z,69.66
2017-11-04T12:40:03.785Z,69.47
2017-11-04T12:41:05.670Z,69.56
2017-11-04T12:42:07.566Z,69.18
2017-11-04T12:43:09.463Z,69.66
2017-11-04T12:44:11.290Z,70.04
2017-11-04T12:45:13.114Z,69.95
2017-11-04T12:46:15.013Z,69.70
2017-11-04T12:47:16.903Z,69.79
2017-11-04T12:48:18.787Z,69.37
2017-11-04T12:49:32.947Z,69.79
2017-11-04T12:50:34.839Z,69.60
2017-11-04T12:51:36.728Z,69.60
2017-11-04T12:52:38.609Z,69.50
2017-11-04T12:53:40.448Z,69.12
2017-11-04T12:54:42.271Z,69.21
2017-11-04T12:55:44.161Z,69.02
2017-11-04T12:56:46.049Z,68.99
2017-11-04T12:57:47.946Z,69.47
2017-11-04T12:59:02.118Z,69.95
2017-11-04T13:00:04.004Z,69.95
2017-11-04T13:01:05.892Z,69.50
2017-11-04T13:02:07.778Z,69.70
2017-11-04T13:03:09.602Z,69.50
2017-11-04T13:04:11.426Z,69.47
2017-11-04T13:05:13.313Z,69.21
2017-11-04T13:06:15.205Z,69.50
2017-11-04T13:07:17.086Z,69.60
2017-11-04T13:08:31.246Z,69.41
2017-11-04T13:09:33.132Z,69.50
2017-11-04T13:10:35.018Z,69.89
2017-11-04T13:11:36.904Z,70.46
2017-11-04T13:12:38.742Z,70.84
2017-11-04T13:13:40.564Z,70.84
2017-11-04T13:14:42.452Z,70.27
2017-11-04T13:15:44.351Z,70.23
2017-11-04T13:16:46.238Z,70.17
2017-11-04T13:18:00.395Z,69.98
2017-11-04T13:19:02.295Z,69.85
2017-11-04T13:20:04.195Z,70.42
2017-11-04T13:21:06.081Z,70.17
2017-11-04T13:22:07.908Z,70.52
2017-11-04T13:23:09.734Z,70.23
2017-11-04T13:24:11.622Z,70.23
2017-11-04T13:25:13.523Z,70.33
2017-11-04T13:26:15.409Z,70.81
2017-11-04T13:27:29.567Z,71.47
2017-11-04T13:28:31.452Z,71.47
2017-11-04T13:29:33.339Z,71.76
2017-11-04T13:30:35.226Z,72.24
2017-11-04T13:31:37.052Z,72.05
2017-11-04T13:32:38.873Z,72.33
2017-11-04T13:33:40.764Z,72.33
2017-11-04T13:34:42.653Z,71.95
2017-11-04T13:35:44.541Z,71.67